Time;durP1;ratioP1;P1;durP2;ratioP2;P2;SDS_P1;SDS_P2;PMS_P1;PMS_P2;Temp;Humidity;BMP_temperature;BMP_pressure;BME280_temperature;BME280_humidity;BME280_pressure;Samples;Min_cycle;Max_cycle;Signal;HPM_P1;HPM_P2
2023/09/05 06:00:36;;;;;;;7.47;3.47;;;;;;;;;;5818669;23;20487;-78
2023/09/05 06:03:03;;;;;;;4.37;3.20;;;;;;;;;;4911667;29;20917;-77
2023/09/05 06:05:29;;;;;;;4.67;3.43;;;;;;;;;;4897485;29;20627;-77
2023/09/05 06:07:56;;;;;;;8.73;4.13;;;;;;;;;;4897467;29;20901;-78
2023/09/05 06:10:22;;;;;;;11.90;4.00;;;;;;;;;;4897664;29;20455;-77
2023/09/05 06:12:48;;;;;;;4.73;3.30;;;;;;;;;;4897818;29;20443;-78
2023/09/05 06:15:14;;;;;;;7.27;3.33;;;;;;;;;;4910389;29;20466;-75
2023/09/05 06:17:40;;;;;;;6.13;3.40;;;;;;;;;;4916496;29;20442;-75
2023/09/05 06:20:06;;;;;;;5.77;4.03;;;;;;;;;;4915754;29;20418;-76
2023/09/05 06:22:32;;;;;;;6.53;3.13;;;;;;;;;;4916093;29;21015;-76
2023/09/05 06:24:58;;;;;;;4.27;3.00;;;;;;;;;;4916606;29;20567;-76
2023/09/05 06:27:24;;;;;;;6.40;4.00;;;;;;;;;;4916487;29;20426;-77
2023/09/05 06:29:50;;;;;;;6.33;3.53;;;;;;;;;;4916344;29;20512;-69
2023/09/05 06:32:16;;;;;;;6.03;3.33;;;;;;;;;;4915567;29;20454;-69
2023/09/05 06:34:42;;;;;;;4.73;3.13;;;;;;;;;;4915470;29;20466;-73
2023/09/05 06:37:09;;;;;;;7.67;4.20;;;;;;;;;;4912240;29;20431;-72
2023/09/05 06:39:35;;;;;;;5.20;3.33;;;;;;;;;;4893949;29;20443;-71
2023/09/05 06:42:01;;;;;;;4.60;3.33;;;;;;;;;;4893160;29;20439;-72
2023/09/05 06:44:31;;;;;;;6.60;2.70;;;;;;;;;;4893054;29;20479;-71
2023/09/05 06:46:57;;;;;;;5.00;3.30;;;;;;;;;;4895616;29;20445;-71
2023/09/05 06:49:23;;;;;;;4.73;3.00;;;;;;;;;;4903518;29;20423;-72
2023/09/05 06:51:49;;;;;;;6.90;3.20;;;;;;;;;;4896781;29;21012;-72
2023/09/05 06:54:15;;;;;;;9.50;3.37;;;;;;;;;;4896579;29;20447;-72
2023/09/05 06:56:41;;;;;;;5.27;3.10;;;;;;;;;;4896599;29;20411;-72
2023/09/05 06:59:16;;;;;;;7.13;3.70;;;;;;;;;;4896535;29;20467;-73
2023/09/05 07:01:42;;;;;;;6.43;3.77;;;;;;;;;;4894786;29;20497;-69
2023/09/05 07:04:08;;;;;;;6.60;3.67;;;;;;;;;;4886345;29;21132;-69
2023/09/05 07:06:36;;;;;;;5.20;3.30;;;;;;;;;;4893252;29;20442;-69
2023/09/05 07:09:02;;;;;;;5.67;4.07;;;;;;;;;;4893059;29;20445;-70
2023/09/05 07:11:28;;;;;;;9.00;4.70;;;;;;;;;;4896341;29;20436;-70
2023/09/05 07:13:54;;;;;;;5.73;3.67;;;;;;;;;;4895203;29;20459;-69
2023/09/05 07:16:20;;;;;;;6.53;3.50;;;;;;;;;;4897171;29;20435;-70
2023/09/05 07:18:46;;;;;;;9.27;3.53;;;;;;;;;;4909328;29;20179;-72
2023/09/05 07:21:12;;;;;;;4.83;3.53;;;;;;;;;;4895117;29;20964;-72
2023/09/05 07:23:38;;;;;;;3.87;3.00;;;;;;;;;;4896121;29;20423;-70
2023/09/05 07:26:07;;;;;;;4.70;3.43;;;;;;;;;;4908375;29;20433;-71
2023/09/05 07:28:34;;;;;;;6.00;3.73;;;;;;;;;;4908944;29;20440;-69
2023/09/05 07:31:00;;;;;;;7.40;3.30;;;;;;;;;;4906316;29;20507;-71
2023/09/05 07:33:26;;;;;;;4.20;3.40;;;;;;;;;;4903567;29;20427;-73
2023/09/05 07:35:52;;;;;;;7.90;3.83;;;;;;;;;;4896440;29;20471;-70
2023/09/05 07:38:21;;;;;;;5.90;2.87;;;;;;;;;;4909290;29;20825;-70
2023/09/05 07:40:48;;;;;;;4.40;2.80;;;;;;;;;;4901706;29;20455;-70
2023/09/05 07:43:14;;;;;;;5.40;3.00;;;;;;;;;;4903882;29;20430;-71
2023/09/05 07:45:40;;;;;;;8.20;3.70;;;;;;;;;;4900804;29;20454;-71
2023/09/05 07:48:09;;;;;;;7.13;3.53;;;;;;;;;;4900080;29;20426;-74
2023/09/05 07:50:36;;;;;;;4.60;3.27;;;;;;;;;;4906309;29;20461;-72
2023/09/05 07:53:02;;;;;;;9.10;3.27;;;;;;;;;;4907103;29;20431;-73
2023/09/05 07:55:28;;;;;;;4.20;3.40;;;;;;;;;;4918205;29;20489;-72
2023/09/05 07:57:55;;;;;;;4.73;3.10;;;;;;;;;;4918159;29;20431;-71
2023/09/05 08:00:21;;;;;;;6.97;3.27;;;;;;;;;;4917838;29;20486;-72
2023/09/05 08:02:47;;;;;;;5.73;3.10;;;;;;;;;;4917823;29;20962;-72
2023/09/05 08:05:13;;;;;;;4.37;3.00;;;;;;;;;;4907000;29;20438;-72
2023/09/05 08:07:39;;;;;;;4.17;3.27;;;;;;;;;;4909039;29;21030;-72
2023/09/05 08:10:08;;;;;;;5.93;3.27;;;;;;;;;;4911607;29;20757;-70
2023/09/05 08:12:34;;;;;;;6.03;2.80;;;;;;;;;;4899285;29;20447;-70
2023/09/05 08:15:00;;;;;;;5.00;3.20;;;;;;;;;;4899885;29;20534;-72
2023/09/05 08:17:26;;;;;;;5.00;3.50;;;;;;;;;;4898788;29;20877;-71
2023/09/05 08:19:52;;;;;;;5.27;2.60;;;;;;;;;;4909692;29;20944;-72
2023/09/05 08:22:18;;;;;;;8.33;3.00;;;;;;;;;;4903795;29;20490;-72
2023/09/05 08:24:44;;;;;;;6.37;2.70;;;;;;;;;;4902249;29;20530;-71
2023/09/05 08:27:14;;;;;;;10.43;3.03;;;;;;;;;;4905875;29;20438;-72
2023/09/05 08:29:40;;;;;;;8.13;3.10;;;;;;;;;;4903803;29;20439;-69
2023/09/05 08:32:06;;;;;;;5.23;3.30;;;;;;;;;;4898939;29;20542;-70
2023/09/05 08:34:32;;;;;;;7.30;3.10;;;;;;;;;;4898704;29;20485;-70
2023/09/05 08:36:59;;;;;;;4.50;2.93;;;;;;;;;;4900103;29;20459;-72
2023/09/05 08:39:25;;;;;;;5.27;2.97;;;;;;;;;;4899971;29;20446;-70
2023/09/05 08:41:52;;;;;;;4.60;2.90;;;;;;;;;;4898321;29;20829;-71
2023/09/05 08:44:18;;;;;;;4.30;2.77;;;;;;;;;;4901457;29;20953;-70
2023/09/05 08:46:45;;;;;;;6.83;3.67;;;;;;;;;;4898652;29;20451;-72
2023/09/05 08:49:11;;;;;;;4.63;2.70;;;;;;;;;;4898731;29;20434;-70
2023/09/05 08:51:39;;;;;;;3.33;2.77;;;;;;;;;;4898482;29;20431;-70
2023/09/05 08:54:06;;;;;;;5.30;2.77;;;;;;;;;;4899008;29;21085;-71
2023/09/05 08:56:32;;;;;;;3.80;2.40;;;;;;;;;;4902208;29;20439;-70
2023/09/05 08:59:00;;;;;;;10.40;2.83;;;;;;;;;;4916295;29;20991;-70
2023/09/05 09:01:26;;;;;;;3.87;2.80;;;;;;;;;;4916790;29;20458;-71
2023/09/05 09:03:53;;;;;;;5.10;2.70;;;;;;;;;;4916087;29;20863;-72
2023/09/05 09:06:25;;;;;;;6.97;3.50;;;;;;;;;;4917285;29;20472;-71
2023/09/05 09:08:52;;;;;;;5.87;2.63;;;;;;;;;;4916951;29;20414;-71
2023/09/05 09:11:22;;;;;;;3.40;2.57;;;;;;;;;;4917210;29;20802;-71
2023/09/05 09:13:51;;;;;;;5.87;3.17;;;;;;;;;;4917141;29;20458;-72
2023/09/05 09:16:18;;;;;;;4.20;2.93;;;;;;;;;;4917245;29;20415;-72
2023/09/05 09:18:48;;;;;;;3.23;2.57;;;;;;;;;;4916678;29;20458;-71
2023/09/05 09:21:16;;;;;;;3.57;3.07;;;;;;;;;;4915258;29;20438;-72
2023/09/05 09:23:44;;;;;;;4.03;2.80;;;;;;;;;;4897974;29;20423;-72
2023/09/05 09:26:10;;;;;;;4.20;3.27;;;;;;;;;;4897881;29;20480;-72
2023/09/05 09:28:37;;;;;;;4.33;2.80;;;;;;;;;;4900854;29;20966;-71
2023/09/05 09:31:04;;;;;;;4.53;3.30;;;;;;;;;;4916842;29;20458;-71
2023/09/05 09:33:31;;;;;;;3.93;2.93;;;;;;;;;;4916806;29;20487;-71
2023/09/05 09:36:06;;;;;;;3.93;2.60;;;;;;;;;;4915575;29;20427;-71
2023/09/05 09:38:32;;;;;;;3.97;2.80;;;;;;;;;;4916523;29;20497;-71
2023/09/05 09:41:02;;;;;;;4.63;3.03;;;;;;;;;;4902638;29;20447;-72
2023/09/05 09:43:32;;;;;;;3.23;2.40;;;;;;;;;;4915611;29;20410;-71
2023/09/05 09:46:04;;;;;;;3.30;2.67;;;;;;;;;;4916609;29;20458;-73
2023/09/05 09:48:31;;;;;;;4.77;2.77;;;;;;;;;;4916529;29;20418;-72
2023/09/05 09:50:58;;;;;;;3.57;2.77;;;;;;;;;;4918565;29;20430;-71
2023/09/05 09:53:44;;;;;;;4.63;2.67;;;;;;;;;;4916925;29;20873;-71
2023/09/05 09:56:11;;;;;;;2.97;2.23;;;;;;;;;;4917074;29;20422;-71
2023/09/05 09:58:41;;;;;;;7.13;2.40;;;;;;;;;;4916420;29;20419;-71
2023/09/05 10:01:10;;;;;;;3.43;2.30;;;;;;;;;;4916897;29;20454;-72
2023/09/05 10:03:36;;;;;;;6.57;2.43;;;;;;;;;;4917486;29;20421;-72
2023/09/05 10:06:04;;;;;;;2.67;1.90;;;;;;;;;;4916995;29;20429;-72
2023/09/05 10:08:30;;;;;;;3.77;2.27;;;;;;;;;;4917492;29;20410;-71
2023/09/05 10:10:56;;;;;;;3.10;2.50;;;;;;;;;;4915821;29;20438;-71
2023/09/05 10:13:27;;;;;;;3.77;2.50;;;;;;;;;;4916212;29;20411;-73
2023/09/05 10:15:55;;;;;;;4.93;2.43;;;;;;;;;;4916656;29;20501;-72
2023/09/05 10:18:22;;;;;;;3.70;2.53;;;;;;;;;;4916276;29;20466;-71
2023/09/05 10:20:50;;;;;;;3.70;2.60;;;;;;;;;;4915652;29;20438;-71
2023/09/05 10:23:17;;;;;;;2.43;2.10;;;;;;;;;;4915807;29;20415;-71
2023/09/05 10:25:44;;;;;;;7.90;2.63;;;;;;;;;;4915755;29;20498;-72
2023/09/05 10:28:10;;;;;;;2.60;2.00;;;;;;;;;;4915688;29;20418;-70
2023/09/05 10:30:43;;;;;;;4.63;2.23;;;;;;;;;;4915686;29;20858;-68
2023/09/05 10:33:09;;;;;;;3.73;2.40;;;;;;;;;;4915604;29;20410;-69
2023/09/05 10:35:35;;;;;;;2.60;2.20;;;;;;;;;;4915697;29;20465;-69
2023/09/05 10:38:02;;;;;;;3.70;2.23;;;;;;;;;;4915424;29;20411;-70
2023/09/05 10:40:35;;;;;;;3.83;2.57;;;;;;;;;;4914234;29;20426;-71
2023/09/05 10:43:03;;;;;;;4.33;2.57;;;;;;;;;;4915835;29;20772;-69
2023/09/05 10:45:30;;;;;;;6.73;2.50;;;;;;;;;;4916550;29;20403;-69
2023/09/05 10:48:04;;;;;;;3.40;2.70;;;;;;;;;;4916175;29;20418;-68
2023/09/05 10:50:31;;;;;;;3.07;2.43;;;;;;;;;;4907607;29;20532;-71
2023/09/05 10:53:12;;;;;;;3.63;2.30;;;;;;;;;;4916125;29;20797;-70
2023/09/05 10:55:44;;;;;;;3.60;2.93;;;;;;;;;;4915898;29;20590;-69
2023/09/05 10:58:29;;;;;;;3.00;2.60;;;;;;;;;;4915944;29;20418;-70
2023/09/05 11:00:55;;;;;;;5.77;2.17;;;;;;;;;;4914648;29;20999;-70
2023/09/05 11:03:21;;;;;;;4.10;2.60;;;;;;;;;;4915974;29;20422;-70
2023/09/05 11:05:47;;;;;;;3.13;2.20;;;;;;;;;;4916210;29;20446;-71
2023/09/05 11:08:23;;;;;;;4.47;2.30;;;;;;;;;;4915687;29;20782;-71
2023/09/05 11:10:53;;;;;;;2.20;2.03;;;;;;;;;;4911202;29;20454;-70
2023/09/05 11:13:19;;;;;;;3.87;2.43;;;;;;;;;;4900940;29;20437;-69
2023/09/05 11:15:45;;;;;;;4.17;2.43;;;;;;;;;;4915550;29;20478;-72
2023/09/05 11:18:12;;;;;;;4.77;2.27;;;;;;;;;;4915365;29;20862;-70
2023/09/05 11:20:39;;;;;;;2.47;2.00;;;;;;;;;;4902385;29;20493;-68
2023/09/05 11:23:18;;;;;;;2.80;2.20;;;;;;;;;;4899842;29;20426;-69
2023/09/05 11:25:46;;;;;;;3.00;2.20;;;;;;;;;;4900505;29;20418;-70
2023/09/05 11:28:12;;;;;;;3.53;2.57;;;;;;;;;;4891937;29;20435;-70
2023/09/05 11:30:40;;;;;;;12.50;2.90;;;;;;;;;;4900364;29;20431;-71
2023/09/05 11:33:16;;;;;;;2.50;2.30;;;;;;;;;;4900331;29;20420;-71
2023/09/05 11:35:42;;;;;;;4.10;2.73;;;;;;;;;;4900155;29;20474;-71
2023/09/05 11:38:09;;;;;;;3.70;2.30;;;;;;;;;;4898863;29;20427;-71
2023/09/05 11:40:36;;;;;;;4.03;2.40;;;;;;;;;;4900561;29;20483;-71
2023/09/05 11:43:06;;;;;;;3.63;2.30;;;;;;;;;;4892191;29;20427;-72
2023/09/05 11:45:33;;;;;;;4.10;2.63;;;;;;;;;;4899750;29;20425;-70
2023/09/05 11:47:59;;;;;;;5.80;3.20;;;;;;;;;;4899561;29;20419;-72
2023/09/05 11:50:25;;;;;;;3.27;2.30;;;;;;;;;;4899433;29;20439;-71
2023/09/05 11:52:52;;;;;;;5.50;3.00;;;;;;;;;;4898857;29;20466;-71
2023/09/05 11:55:21;;;;;;;3.93;2.37;;;;;;;;;;4900903;29;20458;-71
2023/09/05 11:57:48;;;;;;;5.67;2.50;;;;;;;;;;4905755;29;20461;-71
2023/09/05 12:00:15;;;;;;;4.00;2.83;;;;;;;;;;4906121;29;20439;-71
2023/09/05 12:02:41;;;;;;;7.87;2.70;;;;;;;;;;4901206;29;20471;-71
2023/09/05 12:05:11;;;;;;;4.93;2.87;;;;;;;;;;4899835;29;20771;-71
2023/09/05 12:07:37;;;;;;;3.93;2.07;;;;;;;;;;4898291;29;20768;-71
2023/09/05 12:10:04;;;;;;;3.60;2.40;;;;;;;;;;4894665;29;20504;-71
2023/09/05 12:12:30;;;;;;;3.23;2.43;;;;;;;;;;4889012;29;20463;-70
2023/09/05 12:14:57;;;;;;;4.73;2.47;;;;;;;;;;4884213;29;20829;-71
2023/09/05 12:17:24;;;;;;;3.77;2.43;;;;;;;;;;4899934;29;20478;-72
2023/09/05 12:19:51;;;;;;;4.43;2.60;;;;;;;;;;4899035;29;20415;-69
2023/09/05 12:22:35;;;;;;;4.70;2.10;;;;;;;;;;4899363;29;20796;-70
2023/09/05 12:25:15;;;;;;;4.47;2.57;;;;;;;;;;4899013;29;20941;-71
2023/09/05 12:27:42;;;;;;;4.20;2.00;;;;;;;;;;4897643;29;20436;-71
2023/09/05 12:30:09;;;;;;;6.67;2.80;;;;;;;;;;4888061;29;20515;-71
2023/09/05 12:32:37;;;;;;;3.07;2.17;;;;;;;;;;4878511;29;21014;-75
2023/09/05 12:35:03;;;;;;;4.23;2.27;;;;;;;;;;4878157;29;20475;-76
2023/09/05 12:37:29;;;;;;;4.73;2.20;;;;;;;;;;4880959;29;20408;-76
2023/09/05 12:39:56;;;;;;;3.40;2.30;;;;;;;;;;4896490;29;20829;-74
2023/09/05 12:42:23;;;;;;;3.47;2.40;;;;;;;;;;4897968;29;20446;-74
2023/09/05 12:44:49;;;;;;;4.10;2.33;;;;;;;;;;4919777;29;20788;-75
2023/09/05 12:47:15;;;;;;;3.67;2.50;;;;;;;;;;4919313;29;20426;-76
2023/09/05 12:49:42;;;;;;;4.07;2.70;;;;;;;;;;4918596;29;20470;-76
2023/09/05 12:52:09;;;;;;;4.27;2.37;;;;;;;;;;4893903;29;20602;-76
2023/09/05 12:54:35;;;;;;;3.10;2.53;;;;;;;;;;4899658;29;20466;-75
2023/09/05 12:57:04;;;;;;;3.00;2.20;;;;;;;;;;4900020;29;20435;-75
2023/09/05 12:59:30;;;;;;;3.93;2.50;;;;;;;;;;4899941;29;20914;-77
2023/09/05 13:01:56;;;;;;;3.60;2.53;;;;;;;;;;4914348;29;20463;-76
2023/09/05 13:04:22;;;;;;;4.10;2.40;;;;;;;;;;4899725;29;20868;-75
2023/09/05 13:06:48;;;;;;;4.57;2.40;;;;;;;;;;4899923;29;20422;-76
2023/09/05 13:09:14;;;;;;;4.30;2.20;;;;;;;;;;4899634;29;20427;-76
2023/09/05 13:11:40;;;;;;;3.43;2.63;;;;;;;;;;4899713;29;20460;-75
2023/09/05 13:14:06;;;;;;;6.30;2.10;;;;;;;;;;4899193;29;20459;-76
2023/09/05 13:16:33;;;;;;;4.90;2.73;;;;;;;;;;4917947;29;20418;-75
2023/09/05 13:18:58;;;;;;;2.90;2.00;;;;;;;;;;4924345;29;20435;-75
2023/09/05 13:21:25;;;;;;;5.73;2.47;;;;;;;;;;4921859;29;20430;-75
2023/09/05 13:23:52;;;;;;;3.07;2.00;;;;;;;;;;4910218;29;20526;-75
2023/09/05 13:26:18;;;;;;;4.87;2.57;;;;;;;;;;4891234;29;20436;-75
2023/09/05 13:28:44;;;;;;;4.03;2.57;;;;;;;;;;4880347;29;20416;-75
2023/09/05 13:31:10;;;;;;;3.57;2.00;;;;;;;;;;4898846;29;20470;-77
2023/09/05 13:33:38;;;;;;;3.00;2.00;;;;;;;;;;4896596;29;20431;-77
2023/09/05 13:36:04;;;;;;;4.87;2.17;;;;;;;;;;4897615;29;20789;-78
2023/09/05 13:38:30;;;;;;;3.10;2.40;;;;;;;;;;4917097;29;20779;-77
2023/09/05 13:40:56;;;;;;;4.00;2.23;;;;;;;;;;4917454;29;20434;-77
2023/09/05 13:43:22;;;;;;;3.30;2.53;;;;;;;;;;4917503;29;20411;-77
2023/09/05 13:45:48;;;;;;;5.00;2.67;;;;;;;;;;4917038;29;20430;-77
2023/09/05 13:48:14;;;;;;;3.03;2.37;;;;;;;;;;4917041;29;20935;-76
2023/09/05 13:50:40;;;;;;;4.10;2.40;;;;;;;;;;4917530;29;20438;-77
2023/09/05 13:53:07;;;;;;;6.43;2.40;;;;;;;;;;4917520;29;20418;-78
2023/09/05 13:55:33;;;;;;;6.73;2.60;;;;;;;;;;4917022;29;20470;-77
2023/09/05 13:57:59;;;;;;;6.40;2.50;;;;;;;;;;4916584;29;20426;-76
2023/09/05 14:00:25;;;;;;;3.87;2.20;;;;;;;;;;4915548;29;20431;-76
2023/09/05 14:02:51;;;;;;;1.90;1.80;;;;;;;;;;4916669;29;20402;-77
2023/09/05 14:05:17;;;;;;;2.40;2.20;;;;;;;;;;4916952;29;20415;-77
2023/09/05 14:07:43;;;;;;;3.60;2.00;;;;;;;;;;4916843;29;20418;-76
2023/09/05 14:10:10;;;;;;;4.60;2.20;;;;;;;;;;4917220;29;20422;-76
2023/09/05 14:12:37;;;;;;;5.67;2.27;;;;;;;;;;4916249;29;20434;-77
2023/09/05 14:15:03;;;;;;;2.53;2.10;;;;;;;;;;4916206;29;20573;-77
2023/09/05 14:17:29;;;;;;;5.13;2.27;;;;;;;;;;4916519;29;20417;-77
2023/09/05 14:19:55;;;;;;;2.47;1.90;;;;;;;;;;4915051;29;20430;-77
2023/09/05 14:22:21;;;;;;;5.67;3.00;;;;;;;;;;4916224;29;20763;-77
2023/09/05 14:24:47;;;;;;;5.50;2.53;;;;;;;;;;4916068;29;20473;-77
2023/09/05 14:27:14;;;;;;;2.83;2.10;;;;;;;;;;4916215;29;20425;-77
2023/09/05 14:29:40;;;;;;;2.70;2.20;;;;;;;;;;4915927;29;21082;-77
2023/09/05 14:32:06;;;;;;;4.00;2.70;;;;;;;;;;4916283;29;21153;-77
2023/09/05 14:34:32;;;;;;;2.67;2.07;;;;;;;;;;4915958;29;20469;-77
2023/09/05 14:36:58;;;;;;;3.70;2.80;;;;;;;;;;4915975;29;20418;-77
2023/09/05 14:39:24;;;;;;;3.07;2.30;;;;;;;;;;4915641;29;20929;-77
2023/09/05 14:41:50;;;;;;;3.07;2.27;;;;;;;;;;4915944;29;20433;-76
2023/09/05 14:44:17;;;;;;;3.63;2.33;;;;;;;;;;4917514;29;20418;-76
2023/09/05 14:46:43;;;;;;;3.90;2.33;;;;;;;;;;4920225;29;20543;-76
2023/09/05 14:49:11;;;;;;;3.13;2.30;;;;;;;;;;4916659;29;20426;-76
2023/09/05 14:51:37;;;;;;;5.90;2.57;;;;;;;;;;4918423;29;20448;-76
2023/09/05 14:54:03;;;;;;;5.23;3.00;;;;;;;;;;4917179;29;20544;-76
2023/09/05 14:56:30;;;;;;;3.30;2.30;;;;;;;;;;4915410;29;20427;-76
2023/09/05 14:58:56;;;;;;;7.93;3.00;;;;;;;;;;4917912;29;20836;-76
2023/09/05 15:01:22;;;;;;;6.00;2.50;;;;;;;;;;4918068;29;20522;-76
2023/09/05 15:03:48;;;;;;;5.03;2.40;;;;;;;;;;4918267;29;20406;-76
2023/09/05 15:06:14;;;;;;;3.30;1.70;;;;;;;;;;4917195;29;20419;-76
2023/09/05 15:08:40;;;;;;;3.93;2.40;;;;;;;;;;4921490;29;20497;-76
2023/09/05 15:11:07;;;;;;;6.83;2.73;;;;;;;;;;4917181;29;20466;-76
2023/09/05 15:13:33;;;;;;;5.10;2.70;;;;;;;;;;4917317;29;20438;-76
2023/09/05 15:15:59;;;;;;;4.67;2.70;;;;;;;;;;4916399;29;20419;-76
2023/09/05 15:18:25;;;;;;;4.20;2.27;;;;;;;;;;4914816;29;20425;-76
2023/09/05 15:20:54;;;;;;;3.53;2.30;;;;;;;;;;4915779;29;20430;-76
2023/09/05 15:23:20;;;;;;;3.53;2.40;;;;;;;;;;4914798;29;20430;-77
2023/09/05 15:25:46;;;;;;;3.70;2.20;;;;;;;;;;4911854;29;20431;-80
2023/09/05 15:28:12;;;;;;;5.00;2.60;;;;;;;;;;4916997;29;20444;-78
2023/09/05 15:30:39;;;;;;;3.87;2.40;;;;;;;;;;4901896;29;20487;-79
2023/09/05 15:33:05;;;;;;;4.60;2.60;;;;;;;;;;4898901;29;20439;-79
2023/09/05 15:35:31;;;;;;;8.10;3.30;;;;;;;;;;4900890;29;20498;-77
2023/09/05 15:37:58;;;;;;;3.80;2.93;;;;;;;;;;4895481;29;20467;-75
2023/09/05 15:40:25;;;;;;;3.10;2.67;;;;;;;;;;4895666;29;20510;-75
2023/09/05 15:42:50;;;;;;;8.03;2.50;;;;;;;;;;4897307;29;20527;-77
2023/09/05 15:45:16;;;;;;;3.60;2.40;;;;;;;;;;4919677;29;20434;-76
2023/09/05 15:47:42;;;;;;;8.00;3.20;;;;;;;;;;4916522;29;20419;-77
2023/09/05 15:50:09;;;;;;;3.10;2.63;;;;;;;;;;4915881;29;20415;-76
2023/09/05 15:52:35;;;;;;;5.60;3.43;;;;;;;;;;4913715;29;20525;-77
2023/09/05 15:55:01;;;;;;;4.43;2.70;;;;;;;;;;4908148;29;20471;-76
2023/09/05 15:57:27;;;;;;;4.90;3.03;;;;;;;;;;4893714;29;20431;-77
2023/09/05 15:59:56;;;;;;;10.13;3.20;;;;;;;;;;4899479;29;20419;-75
2023/09/05 16:02:22;;;;;;;4.50;2.93;;;;;;;;;;4898658;29;20530;-75
2023/09/05 16:04:48;;;;;;;6.87;2.90;;;;;;;;;;4900167;29;20438;-76
2023/09/05 16:07:14;;;;;;;5.50;2.77;;;;;;;;;;4908776;29;20444;-75
2023/09/05 16:09:40;;;;;;;3.77;2.63;;;;;;;;;;4913211;29;20456;-75
2023/09/05 16:12:07;;;;;;;5.80;2.80;;;;;;;;;;4923318;29;20453;-75
2023/09/05 16:14:33;;;;;;;4.17;2.70;;;;;;;;;;4920969;29;21024;-75
2023/09/05 16:16:59;;;;;;;5.40;2.70;;;;;;;;;;4905313;29;20428;-75
2023/09/05 16:19:25;;;;;;;3.57;2.90;;;;;;;;;;4912356;29;20423;-77
2023/09/05 16:21:52;;;;;;;5.70;2.63;;;;;;;;;;4913181;29;20446;-76
2023/09/05 16:24:18;;;;;;;5.70;2.90;;;;;;;;;;4928206;29;20442;-76
2023/09/05 16:26:44;;;;;;;3.47;2.40;;;;;;;;;;4911670;29;20427;-76
2023/09/05 16:29:11;;;;;;;3.50;2.70;;;;;;;;;;4911551;29;20420;-76
2023/09/05 16:31:37;;;;;;;3.70;2.70;;;;;;;;;;4915028;29;20434;-76
2023/09/05 16:34:03;;;;;;;4.40;2.93;;;;;;;;;;4933851;29;20451;-76
2023/09/05 16:36:29;;;;;;;3.40;2.57;;;;;;;;;;4913905;29;20469;-75
2023/09/05 16:38:55;;;;;;;7.70;2.43;;;;;;;;;;4924452;29;20417;-75
2023/09/05 16:41:22;;;;;;;3.50;2.30;;;;;;;;;;4891675;29;20448;-76
2023/09/05 16:43:48;;;;;;;5.73;2.77;;;;;;;;;;4897049;29;20435;-78
2023/09/05 16:46:16;;;;;;;5.57;2.80;;;;;;;;;;4905082;29;20412;-76
2023/09/05 16:48:43;;;;;;;4.50;2.77;;;;;;;;;;4909215;29;20427;-75
2023/09/05 16:51:17;;;;;;;5.33;3.20;;;;;;;;;;4911737;29;20509;-75
2023/09/05 16:53:44;;;;;;;4.87;2.70;;;;;;;;;;4916903;29;20422;-76
2023/09/05 16:56:11;;;;;;;4.17;2.83;;;;;;;;;;4917534;29;20475;-76
2023/09/05 16:58:39;;;;;;;2.57;2.37;;;;;;;;;;4913836;29;20416;-77
2023/09/05 17:01:05;;;;;;;4.20;2.57;;;;;;;;;;4913032;29;20511;-76
2023/09/05 17:03:31;;;;;;;3.90;2.33;;;;;;;;;;4913733;29;20407;-77
2023/09/05 17:05:58;;;;;;;4.87;2.60;;;;;;;;;;4911824;29;20505;-76
2023/09/05 17:08:24;;;;;;;4.20;2.43;;;;;;;;;;4911188;29;20538;-76
2023/09/05 17:10:50;;;;;;;3.93;2.57;;;;;;;;;;4908270;29;20462;-76
2023/09/05 17:13:16;;;;;;;7.33;2.97;;;;;;;;;;4900450;29;20435;-76
2023/09/05 17:15:42;;;;;;;6.10;2.80;;;;;;;;;;4904014;29;20545;-77
2023/09/05 17:18:08;;;;;;;3.20;2.60;;;;;;;;;;4905317;29;20412;-75
2023/09/05 17:20:34;;;;;;;5.50;2.70;;;;;;;;;;4900144;29;20488;-75
2023/09/05 17:23:01;;;;;;;3.67;2.43;;;;;;;;;;4898956;29;20515;-75
2023/09/05 17:25:27;;;;;;;6.80;2.80;;;;;;;;;;4898395;29;20912;-75
2023/09/05 17:27:53;;;;;;;4.20;2.90;;;;;;;;;;4897865;29;21134;-75
2023/09/05 17:30:19;;;;;;;4.57;2.63;;;;;;;;;;4910664;29;20790;-74
2023/09/05 17:32:45;;;;;;;6.40;3.17;;;;;;;;;;4899290;29;20548;-75
2023/09/05 17:35:11;;;;;;;5.37;2.77;;;;;;;;;;4897887;29;21080;-75
2023/09/05 17:37:40;;;;;;;6.00;3.13;;;;;;;;;;4897662;29;20432;-75
2023/09/05 17:40:09;;;;;;;5.30;3.00;;;;;;;;;;4907398;29;20502;-75
2023/09/05 17:42:35;;;;;;;6.63;3.03;;;;;;;;;;4915096;29;20432;-73
2023/09/05 17:45:01;;;;;;;4.83;3.27;;;;;;;;;;4917459;29;20439;-74
2023/09/05 17:47:28;;;;;;;6.30;3.30;;;;;;;;;;4918833;29;20427;-75
2023/09/05 17:49:54;;;;;;;6.70;3.83;;;;;;;;;;4926871;29;20438;-75
2023/09/05 17:52:20;;;;;;;5.83;3.30;;;;;;;;;;4899928;29;20807;-75
2023/09/05 17:54:46;;;;;;;6.27;3.30;;;;;;;;;;4901116;29;20473;-75
2023/09/05 17:57:11;;;;;;;4.13;3.30;;;;;;;;;;4909649;29;20428;-75
2023/09/05 17:59:40;;;;;;;5.93;3.27;;;;;;;;;;4878090;29;20430;-75
2023/09/05 18:02:06;;;;;;;4.53;3.17;;;;;;;;;;4895147;29;20557;-75
2023/09/05 18:04:33;;;;;;;7.43;3.73;;;;;;;;;;4917216;29;20421;-75
2023/09/05 18:06:59;;;;;;;6.60;3.57;;;;;;;;;;4915410;29;20426;-77
2023/09/05 18:09:25;;;;;;;4.10;2.97;;;;;;;;;;4917552;29;20494;-77
2023/09/05 18:11:51;;;;;;;6.00;3.63;;;;;;;;;;4917428;29;20457;-77
2023/09/05 18:14:18;;;;;;;3.93;2.83;;;;;;;;;;4916199;29;20467;-77
2023/09/05 18:16:45;;;;;;;7.53;3.30;;;;;;;;;;4915035;29;20470;-77
2023/09/05 18:19:11;;;;;;;5.70;3.20;;;;;;;;;;4915560;29;20430;-77
2023/09/05 18:21:37;;;;;;;10.40;4.10;;;;;;;;;;4915641;29;20557;-77
2023/09/05 18:24:03;;;;;;;8.00;3.00;;;;;;;;;;4916479;29;20419;-77
2023/09/05 18:26:29;;;;;;;5.53;3.20;;;;;;;;;;4916459;29;20501;-77
2023/09/05 18:28:55;;;;;;;5.30;3.10;;;;;;;;;;4916027;29;20442;-77
2023/09/05 18:31:21;;;;;;;5.07;3.67;;;;;;;;;;4914386;29;20449;-78
2023/09/05 18:33:49;;;;;;;8.87;3.77;;;;;;;;;;4915999;29;20452;-78
2023/09/05 18:36:15;;;;;;;10.57;4.80;;;;;;;;;;4916499;29;20430;-77
2023/09/05 18:38:41;;;;;;;5.93;3.57;;;;;;;;;;4918302;29;20410;-78
2023/09/05 18:41:12;;;;;;;7.00;3.90;;;;;;;;;;4917473;29;20518;-78
2023/09/05 18:43:38;;;;;;;10.13;4.50;;;;;;;;;;4916702;29;20743;-77
2023/09/05 18:46:04;;;;;;;9.00;3.77;;;;;;;;;;4917497;29;20418;-78
2023/09/05 18:48:36;;;;;;;5.47;3.80;;;;;;;;;;4918772;29;20410;-78
2023/09/05 18:51:02;;;;;;;8.77;4.80;;;;;;;;;;4918081;29;20455;-78
2023/09/05 18:53:28;;;;;;;9.57;3.97;;;;;;;;;;4917732;29;20441;-78
2023/09/05 18:55:54;;;;;;;7.80;3.90;;;;;;;;;;4917174;29;20462;-78
2023/09/05 18:58:21;;;;;;;6.10;3.80;;;;;;;;;;4920787;29;20419;-78
2023/09/05 19:00:50;;;;;;;5.80;3.07;;;;;;;;;;4922525;29;20988;-78
2023/09/05 19:03:16;;;;;;;7.40;3.90;;;;;;;;;;4919002;29;20489;-78
2023/09/05 19:05:41;;;;;;;7.30;4.10;;;;;;;;;;4918385;29;20454;-78
2023/09/05 19:08:07;;;;;;;8.43;4.33;;;;;;;;;;4917524;29;20438;-78
2023/09/05 19:10:37;;;;;;;6.83;4.20;;;;;;;;;;4917516;29;20458;-78
2023/09/05 19:13:03;;;;;;;6.03;3.90;;;;;;;;;;4916425;29;20452;-78
2023/09/05 19:15:29;;;;;;;6.73;4.80;;;;;;;;;;4918071;29;20494;-78
2023/09/05 19:17:55;;;;;;;8.17;4.13;;;;;;;;;;4917076;29;20406;-78
2023/09/05 19:20:21;;;;;;;7.07;3.80;;;;;;;;;;4917286;29;20473;-78
2023/09/05 19:22:51;;;;;;;4.77;3.67;;;;;;;;;;4916665;29;20419;-78
2023/09/05 19:25:17;;;;;;;7.57;4.37;;;;;;;;;;4917379;29;20433;-78
2023/09/05 19:27:43;;;;;;;8.17;3.90;;;;;;;;;;4916400;29;20411;-78
2023/09/05 19:30:10;;;;;;;6.00;3.50;;;;;;;;;;4917062;29;20425;-78
2023/09/05 19:32:36;;;;;;;6.00;3.93;;;;;;;;;;4919920;29;20526;-78
2023/09/05 19:35:02;;;;;;;5.73;4.03;;;;;;;;;;4929775;29;20995;-78
2023/09/05 19:37:28;;;;;;;15.10;5.00;;;;;;;;;;4927218;29;20911;-78
2023/09/05 19:39:54;;;;;;;7.47;4.03;;;;;;;;;;4917374;29;20415;-79
2023/09/05 19:42:22;;;;;;;5.83;3.70;;;;;;;;;;4917910;29;20498;-78
2023/09/05 19:44:48;;;;;;;5.73;3.70;;;;;;;;;;4921124;29;20778;-78
2023/09/05 19:47:14;;;;;;;5.70;3.70;;;;;;;;;;4921063;29;20418;-78
2023/09/05 19:49:40;;;;;;;5.77;4.00;;;;;;;;;;4920263;29;20414;-78
2023/09/05 19:52:07;;;;;;;10.90;4.00;;;;;;;;;;4919835;29;20948;-78
2023/09/05 19:54:33;;;;;;;10.43;4.10;;;;;;;;;;4921122;29;21055;-78
2023/09/05 19:56:59;;;;;;;9.40;4.27;;;;;;;;;;4920087;29;20944;-78
2023/09/05 19:59:25;;;;;;;8.83;3.83;;;;;;;;;;4919652;29;20676;-78
2023/09/05 20:01:51;;;;;;;7.73;4.17;;;;;;;;;;4919411;29;20477;-78
2023/09/05 20:04:17;;;;;;;9.70;4.83;;;;;;;;;;4920516;29;20414;-78
2023/09/05 20:06:42;;;;;;;5.73;3.53;;;;;;;;;;4920466;29;20435;-78
2023/09/05 20:09:08;;;;;;;7.03;4.23;;;;;;;;;;4921122;29;20415;-77
2023/09/05 20:11:35;;;;;;;10.93;4.43;;;;;;;;;;4921552;29;20458;-77
2023/09/05 20:14:01;;;;;;;8.00;4.40;;;;;;;;;;4919542;29;20494;-77
2023/09/05 20:16:27;;;;;;;11.63;4.40;;;;;;;;;;4919804;29;20418;-77
2023/09/05 20:18:53;;;;;;;9.13;3.97;;;;;;;;;;4919157;29;20469;-77
2023/09/05 20:21:19;;;;;;;7.50;4.23;;;;;;;;;;4919005;29;20434;-77
2023/09/05 20:23:45;;;;;;;8.93;4.43;;;;;;;;;;4919138;29;20590;-77
2023/09/05 20:26:12;;;;;;;10.77;4.30;;;;;;;;;;4918927;29;20407;-77
2023/09/05 20:28:38;;;;;;;12.13;4.87;;;;;;;;;;4918598;29;20419;-77
2023/09/05 20:31:05;;;;;;;7.33;4.90;;;;;;;;;;4918900;29;20850;-77
2023/09/05 20:33:31;;;;;;;16.33;5.83;;;;;;;;;;4918763;29;20905;-76
2023/09/05 20:36:04;;;;;;;8.70;4.50;;;;;;;;;;4917154;29;20553;-77
2023/09/05 20:38:30;;;;;;;7.13;4.20;;;;;;;;;;4918333;29;20407;-76
2023/09/05 20:40:56;;;;;;;5.67;4.20;;;;;;;;;;4917285;29;20983;-77